sensor_id;sensor_type;location;lat;lon;timestamp;pressure;altitude;pressure_sealevel;temperature;humidity
45323;BME280;31382;50.200;8.674;2023-01-20T00:03:12;99796.59;;;3.56;75.76
45323;BME280;31382;50.200;8.674;2023-01-20T00:08:14;99799.03;;;3.40;75.80
45323;BME280;31382;50.200;8.674;2023-01-20T00:13:15;99809.53;;;3.22;76.48
45323;BME280;31382;50.200;8.674;2023-01-20T00:18:16;99801.13;;;3.36;75.91
45323;BME280;31382;50.200;8.674;2023-01-20T00:23:18;99813.59;;;3.26;75.48
45323;BME280;31382;50.200;8.674;2023-01-20T00:28:19;99826.19;;;3.05;76.34
45323;BME280;31382;50.200;8.674;2023-01-20T00:33:20;99833.16;;;2.86;76.23
45323;BME280;31382;50.200;8.674;2023-01-20T00:38:22;99836.38;;;2.90;76.00
45323;BME280;31382;50.200;8.674;2023-01-20T00:43:23;99839.31;;;2.96;76.00
45323;BME280;31382;50.200;8.674;2023-01-20T00:48:25;99846.03;;;2.91;76.10
45323;BME280;31382;50.200;8.674;2023-01-20T00:53:26;99845.47;;;2.87;76.35
45323;BME280;31382;50.200;8.674;2023-01-20T00:58:28;99856.66;;;3.01;75.47
45323;BME280;31382;50.200;8.674;2023-01-20T01:03:29;99859.00;;;3.13;75.42
45323;BME280;31382;50.200;8.674;2023-01-20T01:08:30;99860.41;;;3.08;75.36
45323;BME280;31382;50.200;8.674;2023-01-20T01:13:33;99869.94;;;3.01;75.22
45323;BME280;31382;50.200;8.674;2023-01-20T01:18:34;99867.97;;;2.83;75.72
45323;BME280;31382;50.200;8.674;2023-01-20T01:23:36;99876.50;;;2.87;75.15
45323;BME280;31382;50.200;8.674;2023-01-20T01:28:38;99877.19;;;2.89;75.73
45323;BME280;31382;50.200;8.674;2023-01-20T01:33:40;99888.75;;;2.78;75.51
45323;BME280;31382;50.200;8.674;2023-01-20T01:38:41;99896.59;;;2.89;75.33
45323;BME280;31382;50.200;8.674;2023-01-20T01:49:09;99893.78;;;2.81;75.40
45323;BME280;31382;50.200;8.674;2023-01-20T01:54:14;99891.25;;;2.70;75.03
45323;BME280;31382;50.200;8.674;2023-01-20T01:59:17;99905.25;;;2.82;75.41
45323;BME280;31382;50.200;8.674;2023-01-20T02:04:21;99906.50;;;2.77;74.71
45323;BME280;31382;50.200;8.674;2023-01-20T02:09:25;99912.59;;;2.58;75.49
45323;BME280;31382;50.200;8.674;2023-01-20T02:14:30;99912.75;;;2.26;75.96
45323;BME280;31382;50.200;8.674;2023-01-20T02:24:52;99934.59;;;2.40;75.14
45323;BME280;31382;50.200;8.674;2023-01-20T02:35:33;99945.91;;;2.42;74.96
45323;BME280;31382;50.200;8.674;2023-01-20T02:41:04;99957.47;;;2.41;75.43
45323;BME280;31382;50.200;8.674;2023-01-20T02:46:10;99955.94;;;2.38;75.25
45323;BME280;31382;50.200;8.674;2023-01-20T02:51:23;99958.50;;;2.49;75.31
45323;BME280;31382;50.200;8.674;2023-01-20T02:56:27;99963.94;;;2.48;75.62
45323;BME280;31382;50.200;8.674;2023-01-20T03:01:32;99967.31;;;2.50;75.60
45323;BME280;31382;50.200;8.674;2023-01-20T03:06:41;99981.84;;;2.55;75.63
45323;BME280;31382;50.200;8.674;2023-01-20T03:11:50;99981.16;;;2.53;75.09
45323;BME280;31382;50.200;8.674;2023-01-20T03:16:53;99992.00;;;2.50;74.93
45323;BME280;31382;50.200;8.674;2023-01-20T03:21:55;99995.28;;;2.33;75.33
45323;BME280;31382;50.200;8.674;2023-01-20T03:26:58;100000.91;;;2.40;75.69
45323;BME280;31382;50.200;8.674;2023-01-20T03:32:01;100001.88;;;2.38;75.46
45323;BME280;31382;50.200;8.674;2023-01-20T03:37:03;100007.03;;;2.40;75.44
45323;BME280;31382;50.200;8.674;2023-01-20T03:42:09;100010.94;;;2.36;75.36
45323;BME280;31382;50.200;8.674;2023-01-20T03:47:28;100016.69;;;2.41;75.71
45323;BME280;31382;50.200;8.674;2023-01-20T03:52:42;100011.19;;;2.33;75.61
45323;BME280;31382;50.200;8.674;2023-01-20T03:58:00;100020.31;;;2.40;75.14
45323;BME280;31382;50.200;8.674;2023-01-20T04:03:09;100015.00;;;2.40;75.61
45323;BME280;31382;50.200;8.674;2023-01-20T04:08:15;100040.28;;;2.44;75.78
45323;BME280;31382;50.200;8.674;2023-01-20T04:13:17;100032.03;;;2.37;75.69
45323;BME280;31382;50.200;8.674;2023-01-20T04:18:21;100039.66;;;2.31;75.60
45323;BME280;31382;50.200;8.674;2023-01-20T04:23:27;100042.13;;;2.23;75.76
45323;BME280;31382;50.200;8.674;2023-01-20T04:28:31;100035.31;;;2.09;76.00
45323;BME280;31382;50.200;8.674;2023-01-20T04:33:35;100049.06;;;2.14;75.25
45323;BME280;31382;50.200;8.674;2023-01-20T04:38:37;100056.41;;;2.10;76.27
45323;BME280;31382;50.200;8.674;2023-01-20T04:43:42;100054.06;;;2.17;76.01
45323;BME280;31382;50.200;8.674;2023-01-20T04:48:44;100056.72;;;2.17;75.93
45323;BME280;31382;50.200;8.674;2023-01-20T04:53:46;100047.81;;;2.18;75.83
45323;BME280;31382;50.200;8.674;2023-01-20T04:58:47;100061.84;;;2.30;75.59
45323;BME280;31382;50.200;8.674;2023-01-20T05:03:49;100068.47;;;2.35;76.12
45323;BME280;31382;50.200;8.674;2023-01-20T05:08:50;100067.47;;;2.36;75.54
45323;BME280;31382;50.200;8.674;2023-01-20T05:13:52;100061.31;;;2.36;75.91
45323;BME280;31382;50.200;8.674;2023-01-20T05:18:53;100076.59;;;2.44;75.49
45323;BME280;31382;50.200;8.674;2023-01-20T05:23:55;100081.97;;;2.53;76.01
45323;BME280;31382;50.200;8.674;2023-01-20T05:28:57;100084.75;;;2.52;75.93
45323;BME280;31382;50.200;8.674;2023-01-20T05:33:58;100080.44;;;2.61;75.54
45323;BME280;31382;50.200;8.674;2023-01-20T05:39:00;100090.69;;;2.65;75.59
45323;BME280;31382;50.200;8.674;2023-01-20T05:44:01;100091.78;;;2.63;75.65
45323;BME280;31382;50.200;8.674;2023-01-20T05:49:03;100108.44;;;2.65;75.98
45323;BME280;31382;50.200;8.674;2023-01-20T05:54:04;100120.06;;;2.52;75.73
45323;BME280;31382;50.200;8.674;2023-01-20T05:59:06;100129.44;;;2.56;75.89
45323;BME280;31382;50.200;8.674;2023-01-20T06:04:08;100124.84;;;2.58;75.49
45323;BME280;31382;50.200;8.674;2023-01-20T06:09:09;100143.63;;;2.67;75.30
45323;BME280;31382;50.200;8.674;2023-01-20T06:14:11;100141.53;;;2.70;75.63
45323;BME280;31382;50.200;8.674;2023-01-20T06:19:12;100140.56;;;2.71;75.56
45323;BME280;31382;50.200;8.674;2023-01-20T06:24:14;100154.97;;;2.69;76.00
45323;BME280;31382;50.200;8.674;2023-01-20T06:29:15;100151.66;;;2.76;75.62
45323;BME280;31382;50.200;8.674;2023-01-20T06:34:16;100163.81;;;2.79;75.49
45323;BME280;31382;50.200;8.674;2023-01-20T06:39:18;100177.78;;;2.81;75.77
45323;BME280;31382;50.200;8.674;2023-01-20T06:44:19;100171.91;;;2.77;75.97
45323;BME280;31382;50.200;8.674;2023-01-20T06:49:20;100187.69;;;2.79;75.58
45323;BME280;31382;50.200;8.674;2023-01-20T06:54:22;100199.88;;;2.82;75.51
45323;BME280;31382;50.200;8.674;2023-01-20T06:59:23;100200.06;;;2.69;75.53
45323;BME280;31382;50.200;8.674;2023-01-20T07:04:25;100193.53;;;2.73;75.51
45323;BME280;31382;50.200;8.674;2023-01-20T07:09:26;100206.47;;;2.87;75.50
45323;BME280;31382;50.200;8.674;2023-01-20T07:14:27;100205.94;;;2.93;75.49
45323;BME280;31382;50.200;8.674;2023-01-20T07:19:29;100211.72;;;2.98;75.25
45323;BME280;31382;50.200;8.674;2023-01-20T07:24:30;100215.91;;;3.01;74.70
45323;BME280;31382;50.200;8.674;2023-01-20T07:29:31;100226.53;;;3.01;75.28
45323;BME280;31382;50.200;8.674;2023-01-20T07:34:33;100224.28;;;2.96;75.55
45323;BME280;31382;50.200;8.674;2023-01-20T07:39:34;100231.66;;;2.93;75.09
45323;BME280;31382;50.200;8.674;2023-01-20T07:44:36;100239.69;;;3.03;74.85
45323;BME280;31382;50.200;8.674;2023-01-20T07:49:37;100247.78;;;3.01;75.01
45323;BME280;31382;50.200;8.674;2023-01-20T07:54:39;100252.78;;;2.94;74.85
45323;BME280;31382;50.200;8.674;2023-01-20T07:59:40;100250.44;;;3.01;75.27
45323;BME280;31382;50.200;8.674;2023-01-20T08:04:41;100263.13;;;2.97;74.95
45323;BME280;31382;50.200;8.674;2023-01-20T08:09:43;100267.66;;;3.07;75.08
45323;BME280;31382;50.200;8.674;2023-01-20T08:14:44;100267.84;;;3.15;74.61
45323;BME280;31382;50.200;8.674;2023-01-20T08:19:46;100263.78;;;3.11;75.36
45323;BME280;31382;50.200;8.674;2023-01-20T08:24:47;100269.50;;;3.06;75.43
45323;BME280;31382;50.200;8.674;2023-01-20T08:29:48;100277.88;;;3.11;74.90
45323;BME280;31382;50.200;8.674;2023-01-20T08:34:50;100284.63;;;3.15;75.28
45323;BME280;31382;50.200;8.674;2023-01-20T08:39:51;100289.72;;;2.86;75.55
45323;BME280;31382;50.200;8.674;2023-01-20T08:44:52;100289.94;;;2.94;75.49
45323;BME280;31382;50.200;8.674;2023-01-20T08:49:54;100293.69;;;3.13;75.09
45323;BME280;31382;50.200;8.674;2023-01-20T08:54:55;100297.91;;;3.15;74.93
45323;BME280;31382;50.200;8.674;2023-01-20T08:59:58;100306.06;;;3.24;75.30
45323;BME280;31382;50.200;8.674;2023-01-20T09:05:00;100308.34;;;3.28;75.16
45323;BME280;31382;50.200;8.674;2023-01-20T09:10:03;100318.38;;;3.46;74.69
45323;BME280;31382;50.200;8.674;2023-01-20T09:15:04;100322.38;;;3.61;75.14
45323;BME280;31382;50.200;8.674;2023-01-20T09:20:08;100313.16;;;3.65;74.88
45323;BME280;31382;50.200;8.674;2023-01-20T09:25:10;100332.75;;;3.64;75.12
45323;BME280;31382;50.200;8.674;2023-01-20T09:30:11;100334.78;;;3.30;75.28
45323;BME280;31382;50.200;8.674;2023-01-20T09:35:13;100348.00;;;3.41;74.89
45323;BME280;31382;50.200;8.674;2023-01-20T09:40:20;100349.34;;;3.35;75.18
45323;BME280;31382;50.200;8.674;2023-01-20T09:45:54;100342.31;;;3.46;75.18
45323;BME280;31382;50.200;8.674;2023-01-20T09:50:59;100340.25;;;3.59;75.36
45323;BME280;31382;50.200;8.674;2023-01-20T09:56:24;100346.34;;;3.71;75.36
45323;BME280;31382;50.200;8.674;2023-01-20T10:01:50;100343.84;;;3.69;75.28
45323;BME280;31382;50.200;8.674;2023-01-20T10:07:28;100346.97;;;3.84;74.89
45323;BME280;31382;50.200;8.674;2023-01-20T10:12:39;100345.69;;;4.09;74.67
45323;BME280;31382;50.200;8.674;2023-01-20T10:18:09;100357.66;;;4.25;75.09
45323;BME280;31382;50.200;8.674;2023-01-20T10:28:29;100353.75;;;4.29;75.01
45323;BME280;31382;50.200;8.674;2023-01-20T10:33:43;100359.09;;;4.39;74.82
45323;BME280;31382;50.200;8.674;2023-01-20T10:38:52;100352.00;;;4.59;74.98
45323;BME280;31382;50.200;8.674;2023-01-20T10:43:55;100350.44;;;4.66;74.72
45323;BME280;31382;50.200;8.674;2023-01-20T10:49:27;100355.22;;;4.82;74.42
45323;BME280;31382;50.200;8.674;2023-01-20T10:54:44;100350.47;;;4.75;73.79
45323;BME280;31382;50.200;8.674;2023-01-20T10:59:52;100362.78;;;4.57;74.23
45323;BME280;31382;50.200;8.674;2023-01-20T11:05:42;100361.34;;;4.43;73.43
45323;BME280;31382;50.200;8.674;2023-01-20T11:10:28;100359.66;;;4.52;73.58
45323;BME280;31382;50.200;8.674;2023-01-20T11:15:33;100359.31;;;4.76;73.51
45323;BME280;31382;50.200;8.674;2023-01-20T11:20:35;100359.72;;;4.91;73.61
45323;BME280;31382;50.200;8.674;2023-01-20T11:25:37;100350.75;;;5.11;72.85
45323;BME280;31382;50.200;8.674;2023-01-20T11:30:39;100365.91;;;5.30;73.06
45323;BME280;31382;50.200;8.674;2023-01-20T11:36:05;100363.94;;;5.32;72.99
45323;BME280;31382;50.200;8.674;2023-01-20T11:41:18;100359.16;;;5.46;72.79
45323;BME280;31382;50.200;8.674;2023-01-20T11:51:30;100364.06;;;5.50;72.38
45323;BME280;31382;50.200;8.674;2023-01-20T11:56:38;100369.25;;;5.52;72.78
45323;BME280;31382;50.200;8.674;2023-01-20T12:01:50;100370.38;;;5.49;72.64
45323;BME280;31382;50.200;8.674;2023-01-20T12:07:01;100372.19;;;5.49;72.45
45323;BME280;31382;50.200;8.674;2023-01-20T12:12:06;100371.09;;;5.51;71.85
45323;BME280;31382;50.200;8.674;2023-01-20T12:17:15;100373.63;;;5.53;71.81
45323;BME280;31382;50.200;8.674;2023-01-20T12:22:23;100372.72;;;5.62;71.77
45323;BME280;31382;50.200;8.674;2023-01-20T12:27:26;100380.03;;;5.60;72.26
45323;BME280;31382;50.200;8.674;2023-01-20T12:32:28;100383.97;;;5.56;71.76
45323;BME280;31382;50.200;8.674;2023-01-20T12:37:43;100373.88;;;5.50;71.23
45323;BME280;31382;50.200;8.674;2023-01-20T12:43:10;100380.34;;;5.57;72.08
45323;BME280;31382;50.200;8.674;2023-01-20T12:54:03;100377.00;;;5.26;71.51
45323;BME280;31382;50.200;8.674;2023-01-20T12:59:36;100375.72;;;5.20;72.06
45323;BME280;31382;50.200;8.674;2023-01-20T13:05:01;100383.72;;;5.20;71.77
45323;BME280;31382;50.200;8.674;2023-01-20T13:10:21;100383.28;;;5.25;71.62
45323;BME280;31382;50.200;8.674;2023-01-20T13:15:32;100388.75;;;5.23;71.49
45323;BME280;31382;50.200;8.674;2023-01-20T13:20:37;100396.75;;;5.23;71.63
45323;BME280;31382;50.200;8.674;2023-01-20T13:25:43;100402.09;;;5.23;71.83
45323;BME280;31382;50.200;8.674;2023-01-20T13:30:48;100388.34;;;5.28;71.70
45323;BME280;31382;50.200;8.674;2023-01-20T13:35:54;100397.88;;;5.30;71.75
45323;BME280;31382;50.200;8.674;2023-01-20T13:41:00;100395.91;;;5.32;71.80
45323;BME280;31382;50.200;8.674;2023-01-20T13:56:24;100402.63;;;5.56;71.64
45323;BME280;31382;50.200;8.674;2023-01-20T14:01:27;100405.16;;;5.57;71.22
45323;BME280;31382;50.200;8.674;2023-01-20T14:06:28;100408.22;;;5.63;71.03
45323;BME280;31382;50.200;8.674;2023-01-20T14:11:30;100414.44;;;5.63;71.18
45323;BME280;31382;50.200;8.674;2023-01-20T14:21:40;100411.91;;;5.62;71.15
45323;BME280;31382;50.200;8.674;2023-01-20T14:26:41;100417.81;;;5.55;71.34
45323;BME280;31382;50.200;8.674;2023-01-20T14:31:43;100416.66;;;5.58;70.96
45323;BME280;31382;50.200;8.674;2023-01-20T14:36:46;100422.69;;;5.60;71.19
45323;BME280;31382;50.200;8.674;2023-01-20T14:41:53;100422.31;;;5.55;71.45
45323;BME280;31382;50.200;8.674;2023-01-20T14:46:59;100431.53;;;5.51;71.64
45323;BME280;31382;50.200;8.674;2023-01-20T14:52:02;100434.06;;;5.43;71.62
45323;BME280;31382;50.200;8.674;2023-01-20T14:57:34;100439.41;;;5.33;71.71
45323;BME280;31382;50.200;8.674;2023-01-20T15:03:02;100442.38;;;5.40;72.00
45323;BME280;31382;50.200;8.674;2023-01-20T15:08:21;100441.94;;;5.34;71.52
45323;BME280;31382;50.200;8.674;2023-01-20T15:13:26;100454.69;;;5.31;71.22
45323;BME280;31382;50.200;8.674;2023-01-20T15:18:29;100451.47;;;5.37;71.73
45323;BME280;31382;50.200;8.674;2023-01-20T15:23:33;100456.41;;;5.42;71.43
45323;BME280;31382;50.200;8.674;2023-01-20T15:28:43;100455.69;;;5.40;71.52
45323;BME280;31382;50.200;8.674;2023-01-20T15:33:44;100460.19;;;5.39;71.29
45323;BME280;31382;50.200;8.674;2023-01-20T15:38:46;100462.69;;;5.31;72.18
45323;BME280;31382;50.200;8.674;2023-01-20T15:43:47;100464.38;;;5.32;71.36
45323;BME280;31382;50.200;8.674;2023-01-20T15:48:51;100467.75;;;5.24;72.00
45323;BME280;31382;50.200;8.674;2023-01-20T15:53:52;100476.00;;;5.21;71.87
45323;BME280;31382;50.200;8.674;2023-01-20T15:58:54;100477.13;;;5.19;71.13
45323;BME280;31382;50.200;8.674;2023-01-20T16:03:57;100490.31;;;5.10;71.58
45323;BME280;31382;50.200;8.674;2023-01-20T16:09:02;100493.09;;;5.09;71.67
45323;BME280;31382;50.200;8.674;2023-01-20T16:14:12;100502.06;;;5.08;71.71
45323;BME280;31382;50.200;8.674;2023-01-20T16:19:14;100497.13;;;5.03;71.34
45323;BME280;31382;50.200;8.674;2023-01-20T16:24:16;100514.25;;;5.01;71.98
45323;BME280;31382;50.200;8.674;2023-01-20T16:29:17;100513.38;;;4.90;71.81
45323;BME280;31382;50.200;8.674;2023-01-20T16:34:18;100519.84;;;4.88;71.80
45323;BME280;31382;50.200;8.674;2023-01-20T16:39:20;100518.13;;;4.87;71.92
45323;BME280;31382;50.200;8.674;2023-01-20T16:44:21;100525.16;;;4.88;72.23
45323;BME280;31382;50.200;8.674;2023-01-20T16:49:22;100531.56;;;4.85;72.10
45323;BME280;31382;50.200;8.674;2023-01-20T16:54:24;100536.91;;;4.85;72.19
45323;BME280;31382;50.200;8.674;2023-01-20T16:59:25;100532.56;;;4.84;71.90
45323;BME280;31382;50.200;8.674;2023-01-20T17:04:26;100538.16;;;4.81;72.30
45323;BME280;31382;50.200;8.674;2023-01-20T17:09:29;100537.72;;;4.76;72.20
45323;BME280;31382;50.200;8.674;2023-01-20T17:14:30;100548.06;;;4.69;72.11
45323;BME280;31382;50.200;8.674;2023-01-20T17:19:32;100542.41;;;4.63;72.63
45323;BME280;31382;50.200;8.674;2023-01-20T17:24:33;100560.72;;;4.56;72.36
45323;BME280;31382;50.200;8.674;2023-01-20T17:29:35;100556.94;;;4.49;73.01
45323;BME280;31382;50.200;8.674;2023-01-20T17:34:36;100559.47;;;4.50;72.56
45323;BME280;31382;50.200;8.674;2023-01-20T17:39:38;100565.75;;;4.49;72.84
45323;BME280;31382;50.200;8.674;2023-01-20T17:44:39;100564.09;;;4.58;72.56
45323;BME280;31382;50.200;8.674;2023-01-20T17:49:40;100574.38;;;4.63;72.85
45323;BME280;31382;50.200;8.674;2023-01-20T17:54:42;100586.69;;;4.64;72.41
45323;BME280;31382;50.200;8.674;2023-01-20T17:59:43;100596.38;;;4.44;72.68
45323;BME280;31382;50.200;8.674;2023-01-20T18:04:45;100589.44;;;4.31;73.23
45323;BME280;31382;50.200;8.674;2023-01-20T18:09:46;100593.78;;;4.32;72.86
45323;BME280;31382;50.200;8.674;2023-01-20T18:14:47;100597.44;;;4.31;73.19
45323;BME280;31382;50.200;8.674;2023-01-20T18:19:49;100609.19;;;4.29;73.47
45323;BME280;31382;50.200;8.674;2023-01-20T18:24:50;100616.81;;;4.22;73.51
45323;BME280;31382;50.200;8.674;2023-01-20T18:29:52;100609.22;;;4.17;73.10
45323;BME280;31382;50.200;8.674;2023-01-20T18:34:53;100623.66;;;4.15;73.88
45323;BME280;31382;50.200;8.674;2023-01-20T18:39:54;100615.19;;;4.10;73.61
45323;BME280;31382;50.200;8.674;2023-01-20T18:44:56;100619.41;;;4.12;73.74
45323;BME280;31382;50.200;8.674;2023-01-20T18:49:57;100629.47;;;4.09;73.72
45323;BME280;31382;50.200;8.674;2023-01-20T18:54:58;100633.59;;;4.02;73.99
45323;BME280;31382;50.200;8.674;2023-01-20T19:00:00;100644.03;;;3.93;74.03
45323;BME280;31382;50.200;8.674;2023-01-20T19:05:01;100648.78;;;3.78;74.05
45323;BME280;31382;50.200;8.674;2023-01-20T19:10:03;100644.22;;;3.69;74.42
45323;BME280;31382;50.200;8.674;2023-01-20T19:15:05;100652.81;;;3.62;74.75
45323;BME280;31382;50.200;8.674;2023-01-20T19:20:07;100659.34;;;3.57;74.69
45323;BME280;31382;50.200;8.674;2023-01-20T19:25:09;100651.13;;;3.61;74.57
45323;BME280;31382;50.200;8.674;2023-01-20T19:30:11;100655.59;;;3.60;74.57
45323;BME280;31382;50.200;8.674;2023-01-20T19:35:13;100660.19;;;3.58;74.82
45323;BME280;31382;50.200;8.674;2023-01-20T19:40:14;100666.22;;;3.60;75.20
45323;BME280;31382;50.200;8.674;2023-01-20T19:45:17;100672.25;;;3.62;74.94
45323;BME280;31382;50.200;8.674;2023-01-20T19:50:18;100682.78;;;3.64;75.20
45323;BME280;31382;50.200;8.674;2023-01-20T19:55:20;100684.34;;;3.66;74.98
45323;BME280;31382;50.200;8.674;2023-01-20T20:00:21;100690.50;;;3.67;74.84
45323;BME280;31382;50.200;8.674;2023-01-20T20:05:22;100701.97;;;3.67;75.13
45323;BME280;31382;50.200;8.674;2023-01-20T20:10:24;100702.72;;;3.69;75.22
45323;BME280;31382;50.200;8.674;2023-01-20T20:15:25;100709.69;;;3.70;75.23
45323;BME280;31382;50.200;8.674;2023-01-20T20:20:26;100713.34;;;3.69;75.28
45323;BME280;31382;50.200;8.674;2023-01-20T20:25:28;100715.25;;;3.67;75.45
45323;BME280;31382;50.200;8.674;2023-01-20T20:30:29;100719.72;;;3.67;75.12
45323;BME280;31382;50.200;8.674;2023-01-20T20:35:34;100721.16;;;3.71;75.53
45323;BME280;31382;50.200;8.674;2023-01-20T20:40:35;100725.41;;;3.73;75.19
45323;BME280;31382;50.200;8.674;2023-01-20T20:45:36;100732.03;;;3.79;75.26
45323;BME280;31382;50.200;8.674;2023-01-20T20:50:38;100738.22;;;3.80;75.10
45323;BME280;31382;50.200;8.674;2023-01-20T20:55:40;100734.56;;;3.81;75.31
45323;BME280;31382;50.200;8.674;2023-01-20T21:00:42;100743.03;;;3.74;75.49
45323;BME280;31382;50.200;8.674;2023-01-20T21:05:45;100743.78;;;3.76;75.75
45323;BME280;31382;50.200;8.674;2023-01-20T21:10:49;100749.69;;;3.80;75.15
45323;BME280;31382;50.200;8.674;2023-01-20T21:15:55;100758.41;;;3.82;75.51
45323;BME280;31382;50.200;8.674;2023-01-20T21:20:58;100761.06;;;3.82;75.59
45323;BME280;31382;50.200;8.674;2023-01-20T21:26:01;100766.97;;;3.74;75.94
45323;BME280;31382;50.200;8.674;2023-01-20T21:31:11;100767.69;;;3.76;76.06
45323;BME280;31382;50.200;8.674;2023-01-20T21:36:13;100770.00;;;3.81;75.88
45323;BME280;31382;50.200;8.674;2023-01-20T21:41:15;100784.97;;;3.82;76.04
45323;BME280;31382;50.200;8.674;2023-01-20T21:46:17;100772.19;;;3.87;75.97
45323;BME280;31382;50.200;8.674;2023-01-20T21:51:19;100786.53;;;3.85;76.06
45323;BME280;31382;50.200;8.674;2023-01-20T21:56:46;100786.81;;;3.82;76.67
45323;BME280;31382;50.200;8.674;2023-01-20T22:01:48;100798.41;;;3.81;76.62
45323;BME280;31382;50.200;8.674;2023-01-20T22:06:50;100802.75;;;3.82;76.49
45323;BME280;31382;50.200;8.674;2023-01-20T22:11:51;100806.97;;;3.84;76.69
45323;BME280;31382;50.200;8.674;2023-01-20T22:16:52;100820.78;;;3.89;76.54
45323;BME280;31382;50.200;8.674;2023-01-20T22:21:54;100828.13;;;3.86;76.77
45323;BME280;31382;50.200;8.674;2023-01-20T22:26:57;100828.38;;;3.83;77.21
45323;BME280;31382;50.200;8.674;2023-01-20T22:31:58;100834.16;;;3.76;77.37
45323;BME280;31382;50.200;8.674;2023-01-20T22:37:02;100851.56;;;3.81;76.92
45323;BME280;31382;50.200;8.674;2023-01-20T22:42:03;100845.66;;;3.77;77.15
45323;BME280;31382;50.200;8.674;2023-01-20T22:47:05;100865.72;;;3.70;77.32
45323;BME280;31382;50.200;8.674;2023-01-20T22:52:09;100859.56;;;3.69;77.30
45323;BME280;31382;50.200;8.674;2023-01-20T22:57:11;100872.47;;;3.63;77.25
45323;BME280;31382;50.200;8.674;2023-01-20T23:02:13;100876.94;;;3.62;77.53
45323;BME280;31382;50.200;8.674;2023-01-20T23:07:14;100868.59;;;3.67;77.45
45323;BME280;31382;50.200;8.674;2023-01-20T23:12:16;100875.50;;;3.69;77.47
45323;BME280;31382;50.200;8.674;2023-01-20T23:17:17;100883.72;;;3.66;77.71
45323;BME280;31382;50.200;8.674;2023-01-20T23:22:18;100892.53;;;3.67;77.68
45323;BME280;31382;50.200;8.674;2023-01-20T23:27:20;100896.78;;;3.69;77.41
45323;BME280;31382;50.200;8.674;2023-01-20T23:32:22;100898.81;;;3.66;77.70
45323;BME280;31382;50.200;8.674;2023-01-20T23:37:24;100914.78;;;3.66;77.65
45323;BME280;31382;50.200;8.674;2023-01-20T23:42:25;100917.66;;;3.63;77.71
45323;BME280;31382;50.200;8.674;2023-01-20T23:47:26;100928.28;;;3.63;77.82
45323;BME280;31382;50.200;8.674;2023-01-20T23:52:28;100938.06;;;3.62;77.77
45323;BME280;31382;50.200;8.674;2023-01-20T23:57:29;100935.41;;;3.62;77.65
